Time;durP1;ratioP1;P1;durP2;ratioP2;P2;SDS_P1;SDS_P2;PMS_P1;PMS_P2;Temp;Humidity;BMP_temperature;BMP_pressure;BME280_temperature;BME280_humidity;BME280_pressure;Samples;Min_cycle;Max_cycle;Signal;HPM_P1;HPM_P2
2021/09/18 00:02:23;;;;;;;4.88;3.63;;;19.10;59.20;;;;;;5052842;28;20052;-71
2021/09/18 00:04:49;;;;;;;6.03;3.58;;;19.00;59.10;;;;;;5053122;28;20474;-71
2021/09/18 00:07:15;;;;;;;5.03;4.00;;;19.10;59.30;;;;;;5053166;28;20021;-71
2021/09/18 00:09:41;;;;;;;5.03;3.53;;;19.00;59.30;;;;;;5053091;28;20023;-71
2021/09/18 00:12:07;;;;;;;6.72;4.45;;;19.00;59.40;;;;;;5053087;28;20025;-71
2021/09/18 00:14:33;;;;;;;8.82;4.10;;;19.00;59.20;;;;;;5053023;28;20025;-71
2021/09/18 00:16:59;;;;;;;8.02;3.80;;;19.00;59.20;;;;;;5052873;28;20032;-71
2021/09/18 00:19:25;;;;;;;5.10;3.60;;;19.00;59.10;;;;;;5053002;28;20029;-71
2021/09/18 00:21:51;;;;;;;5.75;3.78;;;19.00;59.20;;;;;;5052508;28;20025;-71
2021/09/18 00:24:16;;;;;;;4.43;3.42;;;19.00;59.40;;;;;;5051344;28;20043;-70
2021/09/18 00:26:42;;;;;;;4.53;3.92;;;19.00;59.30;;;;;;5053204;28;20048;-71
2021/09/18 00:29:08;;;;;;;8.52;4.00;;;19.00;59.40;;;;;;5052925;28;20021;-71
2021/09/18 00:31:34;;;;;;;5.07;4.10;;;19.00;59.50;;;;;;5052880;28;20029;-71
2021/09/18 00:34:00;;;;;;;7.85;4.45;;;19.00;59.70;;;;;;5052846;28;20067;-71
2021/09/18 00:36:26;;;;;;;4.72;4.05;;;19.00;59.80;;;;;;5052838;28;20114;-71
2021/09/18 00:38:52;;;;;;;4.95;4.22;;;19.00;59.70;;;;;;5051542;28;20471;-71
2021/09/18 00:41:18;;;;;;;8.05;5.18;;;19.00;59.80;;;;;;5052767;28;20032;-71
2021/09/18 00:43:52;;;;;;;6.53;4.85;;;19.00;59.90;;;;;;5052596;28;20028;-71
2021/09/18 00:46:18;;;;;;;8.98;4.70;;;19.00;59.80;;;;;;5052691;28;20024;-70
2021/09/18 00:48:44;;;;;;;7.93;4.90;;;19.00;59.70;;;;;;5052710;28;20021;-71
2021/09/18 00:51:10;;;;;;;6.30;4.22;;;19.00;59.80;;;;;;5052653;28;20021;-71
2021/09/18 00:53:36;;;;;;;6.32;4.03;;;19.00;59.70;;;;;;5052648;28;20200;-71
2021/09/18 00:56:02;;;;;;;4.30;3.42;;;19.00;59.60;;;;;;5052579;28;20033;-70
2021/09/18 00:58:27;;;;;;;4.68;3.83;;;19.00;59.60;;;;;;5052621;28;20036;-70
2021/09/18 01:00:53;;;;;;;6.57;4.40;;;19.00;59.60;;;;;;5052298;28;20035;-71
2021/09/18 01:03:19;;;;;;;5.25;3.63;;;19.00;59.60;;;;;;5051169;28;20364;-71
2021/09/18 01:05:45;;;;;;;4.20;3.25;;;18.90;59.50;;;;;;5051174;28;20074;-70
2021/09/18 01:08:11;;;;;;;5.93;4.05;;;18.90;59.60;;;;;;5052315;28;20467;-70
2021/09/18 01:10:38;;;;;;;4.95;3.85;;;18.90;59.60;;;;;;5052342;28;20021;-71
2021/09/18 01:13:11;;;;;;;7.47;3.58;;;18.90;59.90;;;;;;5052313;28;20025;-71
2021/09/18 01:15:38;;;;;;;5.50;3.80;;;18.90;59.90;;;;;;5052291;28;20032;-71
2021/09/18 01:18:06;;;;;;;7.40;3.50;;;18.90;59.90;;;;;;5050989;28;20025;-71
2021/09/18 01:20:33;;;;;;;10.00;4.40;;;18.80;59.80;;;;;;5052240;28;20520;-70
2021/09/18 01:23:02;;;;;;;6.85;3.78;;;18.80;59.90;;;;;;5052458;28;20522;-71
2021/09/18 01:25:31;;;;;;;5.72;4.00;;;18.80;59.90;;;;;;5052116;28;20122;-70
2021/09/18 01:27:57;;;;;;;6.30;3.80;;;18.80;59.90;;;;;;5052200;28;20040;-70
2021/09/18 01:30:25;;;;;;;4.90;4.28;;;18.70;59.90;;;;;;5052269;28;20025;-70
2021/09/18 01:32:52;;;;;;;4.93;4.07;;;18.70;60.00;;;;;;5052272;28;20021;-70
2021/09/18 01:35:19;;;;;;;5.40;4.05;;;18.70;60.20;;;;;;5055465;28;20083;-71
2021/09/18 01:37:48;;;;;;;8.23;4.28;;;18.70;60.40;;;;;;5055850;28;20029;-70
2021/09/18 01:40:41;;;;;;;5.13;3.97;;;18.70;60.70;;;;;;5055889;28;20032;-70
2021/09/18 01:43:08;;;;;;;4.75;3.85;;;18.60;60.60;;;;;;5053532;28;20163;-69
2021/09/18 01:45:35;;;;;;;6.20;4.15;;;18.60;60.80;;;;;;5055666;28;20517;-70
2021/09/18 01:48:05;;;;;;;5.60;3.78;;;18.60;60.90;;;;;;5054367;28;20025;-70
2021/09/18 01:50:46;;;;;;;4.80;3.97;;;18.60;61.00;;;;;;5055713;28;20495;-70
2021/09/18 01:53:13;;;;;;;8.82;3.65;;;18.60;61.10;;;;;;5054367;28;20060;-70
2021/09/18 01:55:40;;;;;;;5.53;4.13;;;18.60;61.20;;;;;;5055660;28;20025;-70
2021/09/18 01:58:06;;;;;;;5.50;3.53;;;18.60;61.30;;;;;;5055553;28;20090;-70
2021/09/18 02:00:37;;;;;;;5.45;4.20;;;18.60;61.30;;;;;;5053938;28;20029;-70
2021/09/18 02:03:03;;;;;;;5.65;3.70;;;18.60;61.60;;;;;;5055488;28;20067;-70
2021/09/18 02:05:28;;;;;;;6.60;4.85;;;18.60;61.60;;;;;;5055350;28;20032;-70
2021/09/18 02:07:55;;;;;;;6.35;4.80;;;18.60;61.50;;;;;;5055400;28;20044;-70
2021/09/18 02:10:24;;;;;;;7.70;5.03;;;18.60;61.50;;;;;;5055322;28;20017;-71
2021/09/18 02:12:50;;;;;;;5.22;4.20;;;18.60;61.70;;;;;;5055278;28;20470;-70
2021/09/18 02:15:18;;;;;;;6.00;3.90;;;18.60;61.50;;;;;;5053892;28;20081;-70
2021/09/18 02:17:44;;;;;;;10.75;4.63;;;18.60;61.50;;;;;;5055056;28;20074;-70
2021/09/18 02:20:16;;;;;;;6.45;5.30;;;18.60;61.70;;;;;;5055019;28;20024;-70
2021/09/18 02:22:42;;;;;;;9.55;4.85;;;18.60;61.90;;;;;;5055168;28;20021;-70
2021/09/18 02:25:10;;;;;;;5.85;4.43;;;18.60;62.00;;;;;;5054979;28;20036;-70
2021/09/18 02:27:36;;;;;;;7.03;4.20;;;18.60;62.10;;;;;;5054927;28;20021;-70
2021/09/18 02:30:03;;;;;;;5.38;4.53;;;18.60;62.10;;;;;;5054908;28;20025;-70
2021/09/18 02:32:29;;;;;;;9.57;4.95;;;18.60;62.20;;;;;;5053511;28;20120;-70
2021/09/18 02:34:54;;;;;;;8.98;5.95;;;18.60;62.00;;;;;;5054862;28;20100;-70
2021/09/18 02:37:20;;;;;;;9.38;5.45;;;18.60;62.10;;;;;;5054744;28;20498;-70
2021/09/18 02:39:47;;;;;;;6.10;5.10;;;18.50;61.90;;;;;;5054709;28;20116;-70
2021/09/18 02:42:12;;;;;;;14.60;6.18;;;18.60;62.00;;;;;;5054631;28;20025;-70
2021/09/18 02:44:38;;;;;;;8.00;5.10;;;18.50;61.90;;;;;;5054503;28;20023;-71
2021/09/18 02:47:04;;;;;;;9.20;5.70;;;18.50;61.90;;;;;;5054026;28;20032;-70
2021/09/18 02:49:30;;;;;;;8.13;4.82;;;18.60;62.10;;;;;;5054517;28;20028;-71
2021/09/18 02:51:56;;;;;;;5.75;4.97;;;18.60;62.10;;;;;;5054513;28;20032;-70
2021/09/18 02:54:21;;;;;;;5.97;4.95;;;18.50;62.00;;;;;;5054455;28;20445;-70
2021/09/18 02:56:47;;;;;;;6.32;5.40;;;18.50;62.00;;;;;;5053160;28;20104;-70
2021/09/18 02:59:13;;;;;;;6.20;4.93;;;18.60;62.00;;;;;;5054172;28;20409;-71
2021/09/18 03:01:39;;;;;;;7.80;5.15;;;18.50;61.80;;;;;;5054103;28;20096;-70
2021/09/18 03:04:05;;;;;;;6.82;4.43;;;18.60;61.90;;;;;;5054229;28;20120;-70
2021/09/18 03:06:30;;;;;;;8.50;4.70;;;18.50;61.80;;;;;;5058913;28;20104;-70
2021/09/18 03:08:56;;;;;;;6.85;5.53;;;18.60;61.90;;;;;;5055467;28;20108;-69
2021/09/18 03:11:25;;;;;;;5.68;4.38;;;18.60;61.90;;;;;;5059530;28;20078;-69
2021/09/18 03:13:51;;;;;;;7.53;5.03;;;18.50;61.70;;;;;;5072816;28;20025;-70
2021/09/18 03:16:17;;;;;;;17.08;5.50;;;18.60;61.80;;;;;;5073033;28;20082;-70
2021/09/18 03:18:43;;;;;;;9.02;6.38;;;18.60;62.00;;;;;;5061773;28;20029;-71
2021/09/18 03:21:09;;;;;;;11.57;6.20;;;18.60;62.00;;;;;;5053935;28;20029;-70
2021/09/18 03:23:35;;;;;;;9.77;7.22;;;18.60;61.90;;;;;;5053830;28;20021;-70
2021/09/18 03:26:00;;;;;;;10.15;6.93;;;18.60;62.00;;;;;;5052616;28;20021;-70
2021/09/18 03:28:26;;;;;;;8.23;6.40;;;18.60;62.00;;;;;;5053700;28;20036;-71
2021/09/18 03:30:52;;;;;;;9.85;6.88;;;18.60;61.90;;;;;;5053680;28;20107;-71
2021/09/18 03:33:18;;;;;;;11.20;6.25;;;18.60;61.90;;;;;;5053779;28;20025;-70
2021/09/18 03:35:44;;;;;;;6.85;5.72;;;18.60;61.80;;;;;;5053680;28;20028;-70
2021/09/18 03:38:11;;;;;;;6.30;5.10;;;18.70;61.90;;;;;;5052393;28;20051;-70
2021/09/18 03:40:37;;;;;;;8.20;6.00;;;18.70;61.70;;;;;;5058095;28;20485;-71
2021/09/18 03:43:03;;;;;;;8.05;6.13;;;18.60;62.10;;;;;;5056652;28;20433;-71
2021/09/18 03:45:29;;;;;;;10.02;6.18;;;18.60;62.10;;;;;;5053802;28;20033;-70
2021/09/18 03:47:55;;;;;;;9.55;5.82;;;18.60;62.10;;;;;;5057955;28;20024;-71
2021/09/18 03:50:21;;;;;;;7.95;6.00;;;18.60;62.00;;;;;;5054325;28;20029;-71
2021/09/18 03:52:46;;;;;;;7.45;5.88;;;18.60;62.00;;;;;;5055534;28;20100;-71
2021/09/18 03:55:12;;;;;;;8.27;6.50;;;18.60;62.00;;;;;;5073490;28;20086;-71
2021/09/18 03:57:38;;;;;;;8.57;7.07;;;18.60;61.90;;;;;;5060618;28;20021;-71
2021/09/18 04:00:06;;;;;;;7.78;6.65;;;18.60;62.00;;;;;;5057469;28;20501;-70
2021/09/18 04:02:32;;;;;;;10.63;6.30;;;18.60;62.10;;;;;;5070896;28;20462;-70
2021/09/18 04:04:57;;;;;;;8.38;6.25;;;18.60;62.00;;;;;;5077454;28;20110;-70
2021/09/18 04:07:23;;;;;;;7.38;6.60;;;18.60;62.00;;;;;;5081125;28;20013;-70
2021/09/18 04:09:49;;;;;;;8.93;6.93;;;18.60;62.10;;;;;;5065844;28;20016;-71
2021/09/18 04:12:16;;;;;;;12.80;6.40;;;18.60;62.20;;;;;;5051855;28;20025;-71
2021/09/18 04:14:43;;;;;;;11.75;6.07;;;18.60;62.20;;;;;;5052932;28;20108;-71
2021/09/18 04:17:08;;;;;;;9.77;7.60;;;18.60;62.20;;;;;;5052966;28;20055;-70
2021/09/18 04:19:34;;;;;;;9.00;7.22;;;18.70;62.20;;;;;;5050319;28;20028;-70
2021/09/18 04:22:01;;;;;;;7.70;6.25;;;18.60;62.20;;;;;;5051428;28;20087;-71
2021/09/18 04:24:28;;;;;;;12.25;7.55;;;18.60;62.10;;;;;;5052115;28;20029;-72
2021/09/18 04:26:54;;;;;;;8.43;6.55;;;18.60;62.20;;;;;;5052144;28;20017;-71
2021/09/18 04:29:20;;;;;;;7.90;6.50;;;18.60;62.10;;;;;;5052097;28;20031;-71
2021/09/18 04:31:46;;;;;;;7.13;6.13;;;18.60;62.20;;;;;;5052229;28;20522;-71
2021/09/18 04:34:12;;;;;;;7.88;6.63;;;18.60;62.20;;;;;;5051814;28;20017;-71
2021/09/18 04:36:38;;;;;;;8.00;6.70;;;18.60;62.20;;;;;;5051983;28;20040;-71
2021/09/18 04:39:04;;;;;;;8.93;6.72;;;18.60;62.10;;;;;;5052007;28;20390;-71
2021/09/18 04:41:30;;;;;;;10.27;8.13;;;18.60;62.20;;;;;;5051975;28;20437;-71
2021/09/18 04:43:56;;;;;;;8.15;7.18;;;18.60;62.40;;;;;;5052164;28;20033;-71
2021/09/18 04:46:25;;;;;;;14.60;7.22;;;18.60;62.30;;;;;;5051747;28;20053;-71
2021/09/18 04:48:51;;;;;;;11.38;7.40;;;18.60;62.20;;;;;;5050576;28;20029;-71
2021/09/18 04:51:17;;;;;;;11.93;7.15;;;18.60;62.30;;;;;;5051731;28;20100;-71
2021/09/18 04:53:42;;;;;;;10.85;7.85;;;18.60;62.30;;;;;;5051653;28;20113;-71
2021/09/18 04:56:08;;;;;;;19.35;9.43;;;18.60;62.30;;;;;;5051722;28;20036;-71
2021/09/18 04:58:34;;;;;;;18.52;8.75;;;18.60;62.20;;;;;;5050634;28;20037;-71
2021/09/18 05:01:00;;;;;;;14.23;8.43;;;18.60;62.10;;;;;;5051515;28;20049;-72
2021/09/18 05:03:26;;;;;;;12.15;8.43;;;18.60;62.10;;;;;;5051629;28;20029;-71
2021/09/18 05:05:51;;;;;;;13.07;8.15;;;18.60;62.10;;;;;;5051709;28;20025;-71
2021/09/18 05:08:17;;;;;;;12.40;8.15;;;18.60;62.10;;;;;;5052044;28;20021;-71
2021/09/18 05:10:43;;;;;;;11.02;8.10;;;18.60;62.20;;;;;;5055661;28;20485;-71
2021/09/18 05:13:09;;;;;;;13.95;7.38;;;18.60;62.20;;;;;;5055001;28;20096;-71
2021/09/18 05:15:35;;;;;;;9.13;7.97;;;18.60;62.20;;;;;;5057666;28;20112;-71
2021/09/18 05:18:01;;;;;;;9.07;8.13;;;18.60;62.20;;;;;;5055628;28;20065;-71
2021/09/18 05:20:27;;;;;;;9.52;7.15;;;18.60;62.30;;;;;;5055534;28;20029;-72
2021/09/18 05:22:52;;;;;;;11.88;8.60;;;18.60;62.20;;;;;;5055253;28;20039;-72
2021/09/18 05:25:18;;;;;;;11.02;8.25;;;18.70;62.20;;;;;;5055235;28;20025;-71
2021/09/18 05:27:44;;;;;;;11.50;9.43;;;18.70;62.20;;;;;;5055265;28;20096;-71
2021/09/18 05:30:11;;;;;;;9.98;7.70;;;18.70;62.00;;;;;;5055183;28;20025;-71
2021/09/18 05:32:37;;;;;;;12.25;8.68;;;18.70;62.10;;;;;;5055073;28;20037;-72
2021/09/18 05:35:04;;;;;;;12.88;8.07;;;18.70;62.10;;;;;;5053964;28;20405;-72
2021/09/18 05:37:29;;;;;;;10.10;7.90;;;18.70;62.10;;;;;;5055143;28;20032;-71
2021/09/18 05:39:55;;;;;;;8.55;7.55;;;18.70;62.00;;;;;;5055117;28;20709;-71
2021/09/18 05:42:21;;;;;;;9.07;7.20;;;18.70;61.90;;;;;;5054931;28;20114;-70
2021/09/18 05:44:47;;;;;;;10.20;8.00;;;18.80;62.00;;;;;;5054860;28;20036;-70
2021/09/18 05:47:13;;;;;;;11.13;7.60;;;18.80;61.90;;;;;;5054963;28;20120;-71
2021/09/18 05:49:38;;;;;;;9.82;7.97;;;18.80;61.90;;;;;;5054928;28;20106;-71
2021/09/18 05:52:04;;;;;;;11.77;8.40;;;18.80;61.80;;;;;;5054946;28;20025;-70
2021/09/18 05:54:30;;;;;;;11.00;8.65;;;18.80;61.70;;;;;;5054540;28;20071;-71
2021/09/18 05:56:56;;;;;;;15.35;8.65;;;18.90;61.70;;;;;;5054758;28;20029;-71
2021/09/18 05:59:22;;;;;;;12.70;8.75;;;18.90;61.70;;;;;;5054862;28;20034;-71
2021/09/18 06:01:48;;;;;;;9.15;7.95;;;18.90;61.30;;;;;;5054458;28;20049;-71
2021/09/18 06:04:14;;;;;;;11.20;8.18;;;18.90;61.30;;;;;;5053142;28;20474;-71
2021/09/18 06:06:40;;;;;;;9.68;8.23;;;18.90;61.00;;;;;;5067060;28;20529;-71
2021/09/18 06:09:06;;;;;;;9.13;7.15;;;19.00;61.10;;;;;;5073120;28;20517;-71
2021/09/18 06:11:31;;;;;;;12.73;8.68;;;19.00;61.10;;;;;;5074341;28;20543;-71
2021/09/18 06:13:57;;;;;;;10.50;8.32;;;19.00;60.90;;;;;;5074256;28;20036;-71
2021/09/18 06:16:23;;;;;;;10.98;9.20;;;19.00;60.70;;;;;;5074304;28;20028;-71
2021/09/18 06:18:52;;;;;;;12.07;8.65;;;19.00;60.10;;;;;;5067701;28;20100;-71
2021/09/18 06:21:18;;;;;;;11.85;8.13;;;19.00;60.20;;;;;;5053083;28;20388;-71
2021/09/18 06:23:45;;;;;;;10.52;8.45;;;19.10;60.30;;;;;;5054167;28;20045;-71
2021/09/18 06:26:11;;;;;;;9.07;7.88;;;19.10;60.10;;;;;;5054363;28;20029;-71
2021/09/18 06:28:37;;;;;;;10.88;8.55;;;19.10;60.10;;;;;;5054460;28;20066;-71
2021/09/18 06:31:03;;;;;;;11.07;8.48;;;19.20;59.90;;;;;;5055969;28;20028;-71
2021/09/18 06:33:29;;;;;;;12.38;8.35;;;19.20;59.70;;;;;;5072451;28;20021;-71
2021/09/18 06:35:56;;;;;;;12.82;8.75;;;19.20;59.70;;;;;;5072703;28;20029;-72
2021/09/18 06:38:22;;;;;;;11.35;8.20;;;19.20;59.50;;;;;;5073961;28;20032;-71
2021/09/18 06:40:49;;;;;;;13.60;8.88;;;19.30;59.50;;;;;;5073549;28;20445;-71
2021/09/18 06:43:16;;;;;;;11.63;7.70;;;19.30;59.30;;;;;;5072059;28;20150;-72
2021/09/18 06:45:42;;;;;;;11.68;8.40;;;19.40;59.50;;;;;;5072042;28;20496;-71
2021/09/18 06:48:07;;;;;;;10.75;9.45;;;19.40;59.30;;;;;;5073783;28;20051;-71
2021/09/18 06:50:34;;;;;;;10.50;7.93;;;19.50;59.10;;;;;;5073438;28;20016;-71
2021/09/18 06:52:59;;;;;;;12.07;8.90;;;19.50;59.20;;;;;;5065358;28;20389;-70
2021/09/18 06:55:26;;;;;;;13.18;8.65;;;19.60;58.90;;;;;;5053609;28;20116;-72
2021/09/18 06:57:54;;;;;;;11.60;8.75;;;19.60;58.70;;;;;;5059962;28;20052;-72
2021/09/18 07:00:20;;;;;;;12.48;7.88;;;19.70;58.50;;;;;;5072250;28;20115;-71
2021/09/18 07:02:45;;;;;;;14.93;7.72;;;19.80;58.60;;;;;;5073402;28;20132;-71
2021/09/18 07:05:11;;;;;;;12.32;9.60;;;19.80;58.40;;;;;;5073469;28;20103;-71
2021/09/18 07:07:37;;;;;;;20.17;9.32;;;19.80;58.50;;;;;;5073434;28;20024;-70
2021/09/18 07:10:03;;;;;;;9.60;8.07;;;19.90;58.60;;;;;;5072300;28;20051;-71
2021/09/18 07:12:29;;;;;;;11.50;8.82;;;19.90;58.00;;;;;;5063042;28;20426;-71
2021/09/18 07:14:55;;;;;;;12.80;9.00;;;20.00;58.00;;;;;;5053330;28;20028;-71
2021/09/18 07:17:20;;;;;;;10.30;9.10;;;20.00;57.70;;;;;;5053134;28;20036;-71
2021/09/18 07:19:46;;;;;;;11.45;8.63;;;20.10;57.50;;;;;;5053157;28;20035;-71
2021/09/18 07:22:12;;;;;;;13.60;9.27;;;20.10;57.40;;;;;;5063332;28;20028;-71
2021/09/18 07:24:38;;;;;;;13.90;9.88;;;20.20;57.40;;;;;;5072811;28;20112;-71
2021/09/18 07:27:04;;;;;;;13.40;9.75;;;20.20;57.00;;;;;;5064117;28;20120;-71
2021/09/18 07:29:30;;;;;;;12.23;8.65;;;20.20;56.70;;;;;;5051705;28;20017;-71
2021/09/18 07:31:55;;;;;;;12.57;9.18;;;20.20;57.50;;;;;;5052713;28;20517;-71
2021/09/18 07:34:22;;;;;;;10.98;8.77;;;20.20;57.00;;;;;;5055103;28;20428;-71
2021/09/18 07:36:48;;;;;;;14.48;8.68;;;20.20;56.90;;;;;;5072902;28;20557;-70
2021/09/18 07:39:14;;;;;;;11.82;9.52;;;20.30;57.00;;;;;;5072769;28;20032;-71
2021/09/18 07:41:41;;;;;;;15.65;8.10;;;20.30;56.90;;;;;;5065144;28;20159;-71
2021/09/18 07:44:07;;;;;;;9.77;8.07;;;20.40;56.90;;;;;;5054852;28;20033;-71
2021/09/18 07:46:33;;;;;;;12.82;8.18;;;20.50;57.10;;;;;;5058607;28;20436;-71
2021/09/18 07:49:00;;;;;;;11.60;8.60;;;20.50;56.90;;;;;;5052513;28;20100;-71
2021/09/18 07:51:27;;;;;;;11.98;8.18;;;20.60;56.80;;;;;;5052490;28;20143;-71
2021/09/18 07:53:53;;;;;;;10.35;8.13;;;20.70;57.00;;;;;;5057846;28;20024;-71
2021/09/18 07:56:19;;;;;;;14.00;9.45;;;20.80;56.60;;;;;;5057684;28;20451;-71
2021/09/18 07:58:45;;;;;;;8.90;7.70;;;20.90;55.90;;;;;;5070960;28;20047;-71
2021/09/18 08:01:11;;;;;;;12.55;7.47;;;21.00;56.70;;;;;;5071438;28;20094;-72
2021/09/18 08:03:37;;;;;;;9.32;7.68;;;21.10;56.00;;;;;;5072474;28;20024;-72
2021/09/18 08:06:04;;;;;;;10.48;7.78;;;21.20;56.00;;;;;;5069181;28;20161;-72
2021/09/18 08:08:30;;;;;;;11.00;8.35;;;21.30;55.60;;;;;;5071864;28;20031;-71
2021/09/18 08:10:56;;;;;;;11.63;8.07;;;21.40;55.00;;;;;;5063247;28;20037;-71
2021/09/18 08:13:22;;;;;;;13.40;8.00;;;21.50;54.40;;;;;;5071979;28;20436;-72
2021/09/18 08:15:47;;;;;;;10.63;8.13;;;21.50;54.40;;;;;;5072150;28;20078;-71
2021/09/18 08:18:13;;;;;;;12.32;8.05;;;21.50;53.90;;;;;;5071935;28;20541;-71
2021/09/18 08:20:39;;;;;;;12.82;9.45;;;21.60;53.80;;;;;;5065766;28;20029;-71
2021/09/18 08:23:05;;;;;;;12.68;7.55;;;21.60;53.20;;;;;;5051976;28;20171;-71
2021/09/18 08:25:31;;;;;;;10.18;7.82;;;21.60;54.00;;;;;;5050501;28;20031;-71
2021/09/18 08:27:57;;;;;;;13.48;8.57;;;21.60;53.60;;;;;;5052036;28;20025;-71
2021/09/18 08:30:23;;;;;;;9.80;7.45;;;21.60;53.40;;;;;;5062089;28;20509;-71
2021/09/18 08:32:49;;;;;;;12.20;8.80;;;21.70;53.70;;;;;;5072020;28;20089;-71
2021/09/18 08:35:15;;;;;;;13.73;7.60;;;21.70;53.10;;;;;;5072099;28;20021;-71
2021/09/18 08:37:41;;;;;;;16.65;8.75;;;21.70;53.10;;;;;;5071814;28;20052;-71
2021/09/18 08:40:09;;;;;;;9.88;7.78;;;21.80;52.90;;;;;;5069718;28;20043;-71
2021/09/18 08:42:40;;;;;;;14.65;7.95;;;21.70;53.00;;;;;;5071492;28;20024;-71
2021/09/18 08:45:08;;;;;;;9.23;7.47;;;21.70;53.00;;;;;;5075251;28;20059;-71
2021/09/18 08:47:35;;;;;;;10.35;8.32;;;21.70;53.10;;;;;;5075632;28;20359;-72
2021/09/18 08:50:03;;;;;;;14.38;8.18;;;21.70;52.70;;;;;;5068245;28;20107;-71
2021/09/18 08:52:28;;;;;;;11.63;8.35;;;21.70;52.90;;;;;;5075550;28;20012;-71
2021/09/18 08:54:54;;;;;;;8.55;6.85;;;21.70;52.90;;;;;;5073589;28;20166;-71
2021/09/18 08:57:20;;;;;;;13.13;9.27;;;21.70;53.00;;;;;;5075933;28;20052;-72
2021/09/18 08:59:46;;;;;;;11.48;8.15;;;21.60;52.70;;;;;;5071725;28;20480;-71
2021/09/18 09:02:15;;;;;;;13.60;8.55;;;21.60;52.90;;;;;;5054215;28;20136;-71
2021/09/18 09:04:41;;;;;;;14.60;8.55;;;21.70;53.10;;;;;;5055871;28;20029;-71
2021/09/18 09:07:10;;;;;;;14.38;8.63;;;21.70;53.20;;;;;;5056476;28;20366;-71
2021/09/18 09:10:11;;;;;;;9.75;8.02;;;21.80;53.40;;;;;;5065060;28;20367;-72
2021/09/18 09:12:38;;;;;;;8.90;7.55;;;21.90;53.70;;;;;;5053023;28;20040;-72
2021/09/18 09:15:10;;;;;;;11.75;8.70;;;22.00;52.50;;;;;;5053181;28;20082;-71
2021/09/18 09:17:38;;;;;;;8.68;6.88;;;22.10;52.20;;;;;;5052948;28;20044;-71
2021/09/18 09:20:05;;;;;;;9.85;7.40;;;22.10;52.50;;;;;;5060270;28;20054;-72
2021/09/18 09:22:36;;;;;;;14.23;7.18;;;22.10;52.00;;;;;;5072715;28;20039;-73
2021/09/18 09:25:02;;;;;;;8.13;6.22;;;22.10;52.00;;;;;;5073034;28;20099;-72
2021/09/18 09:27:28;;;;;;;8.63;6.82;;;22.10;52.00;;;;;;5072850;28;20033;-73
2021/09/18 09:29:57;;;;;;;8.50;6.90;;;22.10;51.70;;;;;;5072556;28;20455;-72
2021/09/18 09:32:37;;;;;;;8.90;6.35;;;22.00;51.50;;;;;;5072889;28;20494;-72
2021/09/18 09:35:14;;;;;;;9.15;6.75;;;21.90;51.70;;;;;;5072999;28;20067;-72
2021/09/18 09:37:50;;;;;;;9.50;6.05;;;21.90;52.00;;;;;;5072917;28;20048;-71
2021/09/18 09:40:29;;;;;;;6.85;5.18;;;21.90;52.30;;;;;;5064609;28;20036;-72
2021/09/18 09:42:56;;;;;;;8.63;5.75;;;21.90;52.50;;;;;;5052826;28;20033;-71
2021/09/18 09:45:22;;;;;;;10.05;6.53;;;21.80;52.50;;;;;;5052532;28;20606;-72
2021/09/18 09:48:01;;;;;;;9.63;6.63;;;21.80;52.60;;;;;;5054765;28;20100;-72
2021/09/18 09:50:27;;;;;;;8.95;6.15;;;21.80;52.60;;;;;;5055678;28;20028;-72
2021/09/18 09:52:55;;;;;;;9.40;6.13;;;21.80;51.80;;;;;;5054470;28;20489;-73
2021/09/18 09:55:21;;;;;;;9.18;6.75;;;21.80;51.60;;;;;;5053064;28;20163;-72
2021/09/18 09:58:00;;;;;;;9.75;6.45;;;21.80;51.40;;;;;;5054670;28;20092;-72
2021/09/18 10:00:37;;;;;;;7.60;5.47;;;21.90;51.70;;;;;;5053462;28;20139;-71
2021/09/18 10:03:03;;;;;;;6.72;5.43;;;21.90;51.60;;;;;;5052884;28;20080;-71
2021/09/18 10:05:29;;;;;;;8.43;5.82;;;22.00;51.60;;;;;;5054243;28;20029;-71
2021/09/18 10:07:55;;;;;;;7.90;6.07;;;22.00;51.60;;;;;;5054277;28;20023;-72
2021/09/18 10:10:22;;;;;;;6.45;5.03;;;22.20;51.50;;;;;;5054226;28;20478;-71
2021/09/18 10:12:49;;;;;;;7.57;5.43;;;22.30;51.10;;;;;;5054477;28;20025;-71
2021/09/18 10:15:15;;;;;;;10.65;5.03;;;22.40;50.80;;;;;;5054359;28;20021;-71
2021/09/18 10:17:44;;;;;;;5.30;4.43;;;22.60;49.70;;;;;;5054351;28;20029;-71
2021/09/18 10:25:34;;;;;;;7.63;5.10;;;23.10;48.20;;;;;;5054994;28;20449;-71
2021/09/18 10:28:10;;;;;;;6.10;4.45;;;23.20;47.80;;;;;;5055130;28;20051;-71
2021/09/18 10:30:38;;;;;;;4.57;3.95;;;23.40;47.60;;;;;;5054897;28;20029;-71
2021/09/18 10:33:04;;;;;;;5.32;3.92;;;23.60;47.30;;;;;;5054937;28;20020;-71
2021/09/18 10:35:31;;;;;;;9.75;4.13;;;23.70;47.20;;;;;;5054790;28;20037;-72
2021/09/18 10:38:18;;;;;;;9.95;4.03;;;23.70;46.80;;;;;;5054807;28;20044;-72
2021/09/18 10:41:15;;;;;;;7.57;4.65;;;23.80;46.70;;;;;;5071915;28;20037;-71
2021/09/18 10:43:42;;;;;;;6.53;4.65;;;23.90;46.90;;;;;;5074194;28;20036;-71
2021/09/18 10:46:29;;;;;;;4.90;4.22;;;23.90;45.70;;;;;;5074801;28;20431;-72
2021/09/18 10:48:57;;;;;;;7.53;4.65;;;23.80;45.80;;;;;;5054975;28;20397;-72
2021/09/18 10:51:35;;;;;;;5.95;3.83;;;23.80;45.90;;;;;;5054637;28;20028;-71
2021/09/18 10:54:11;;;;;;;13.23;4.30;;;23.70;46.10;;;;;;5054567;28;20025;-72
2021/09/18 10:57:00;;;;;;;6.97;4.22;;;23.70;46.20;;;;;;5053256;28;20062;-73
2021/09/18 10:59:42;;;;;;;4.32;3.15;;;23.60;46.60;;;;;;5052639;28;20479;-73
2021/09/18 11:02:29;;;;;;;7.97;4.25;;;23.70;46.70;;;;;;5054278;28;20064;-73
2021/09/18 11:05:05;;;;;;;11.27;4.10;;;23.80;46.80;;;;;;5053886;28;20391;-73
2021/09/18 11:07:40;;;;;;;4.50;3.42;;;23.80;45.90;;;;;;5052479;28;20494;-73
2021/09/18 11:10:15;;;;;;;4.53;3.70;;;23.80;46.70;;;;;;5054241;28;20104;-73
2021/09/18 11:12:42;;;;;;;4.78;3.45;;;23.80;46.60;;;;;;5054160;28;20505;-72
2021/09/18 11:15:11;;;;;;;5.70;3.60;;;23.80;46.50;;;;;;5053984;28;20080;-73
2021/09/18 11:17:42;;;;;;;4.03;3.53;;;23.90;46.10;;;;;;5054127;28;20592;-73
2021/09/18 11:20:19;;;;;;;5.75;3.72;;;23.90;45.90;;;;;;5058055;28;20025;-72
2021/09/18 11:22:52;;;;;;;4.22;3.50;;;24.00;46.00;;;;;;5054001;28;20363;-72
2021/09/18 11:25:43;;;;;;;4.07;3.20;;;24.20;46.10;;;;;;5062477;28;20466;-71
2021/09/18 11:28:09;;;;;;;4.50;3.55;;;24.30;46.30;;;;;;5073810;28;20027;-72
2021/09/18 11:30:37;;;;;;;4.25;3.13;;;24.40;46.40;;;;;;5073707;28;20021;-72
2021/09/18 11:33:03;;;;;;;6.07;4.13;;;24.60;45.90;;;;;;5073533;28;20052;-72
2021/09/18 11:35:29;;;;;;;4.07;3.03;;;24.60;45.30;;;;;;5068339;28;20075;-72
2021/09/18 11:38:00;;;;;;;4.40;2.95;;;24.70;45.00;;;;;;5065287;28;20036;-72
2021/09/18 11:40:27;;;;;;;4.75;3.80;;;24.80;45.20;;;;;;5073613;28;20037;-72
2021/09/18 11:42:56;;;;;;;5.10;3.25;;;24.80;44.60;;;;;;5062885;28;20029;-72
2021/09/18 11:45:24;;;;;;;6.07;4.50;;;24.80;44.80;;;;;;5068885;28;20032;-72
2021/09/18 11:47:58;;;;;;;5.85;3.50;;;24.90;43.80;;;;;;5052240;28;20056;-72
2021/09/18 11:50:24;;;;;;;;;;;24.90;44.20;;;;;;5067270;28;20151;-72
2021/09/18 11:52:56;;;;;;;5.38;3.65;;;24.90;45.40;;;;;;5056876;28;20003;-72
2021/09/18 11:55:47;;;;;;;4.70;3.58;;;25.00;43.60;;;;;;5068039;28;20036;-72
2021/09/18 11:58:16;;;;;;;3.80;3.40;;;24.90;43.40;;;;;;5068862;28;20063;-72
2021/09/18 12:00:48;;;;;;;4.65;3.13;;;25.00;43.80;;;;;;5064183;28;20025;-72
2021/09/18 12:03:29;;;;;;;4.63;3.55;;;25.00;44.20;;;;;;5053637;28;20470;-71
2021/09/18 12:05:56;;;;;;;5.80;3.47;;;25.10;44.00;;;;;;5055762;28;20040;-72
2021/09/18 12:08:24;;;;;;;3.53;2.80;;;25.20;44.10;;;;;;5051211;28;20383;-71
2021/09/18 12:10:52;;;;;;;5.32;3.63;;;25.20;43.90;;;;;;5052168;28;20021;-72
2021/09/18 12:13:20;;;;;;;3.20;2.63;;;25.30;43.10;;;;;;5052070;28;20031;-71
2021/09/18 12:15:46;;;;;;;5.45;2.75;;;25.30;43.80;;;;;;5051891;28;20033;-71
2021/09/18 12:18:33;;;;;;;5.57;3.00;;;25.40;43.40;;;;;;5051110;28;20021;-72
2021/09/18 12:21:00;;;;;;;4.60;3.65;;;25.40;43.20;;;;;;5052024;28;20037;-71
2021/09/18 12:23:27;;;;;;;4.53;2.70;;;25.50;42.90;;;;;;5051860;28;20387;-72
2021/09/18 12:25:58;;;;;;;5.75;3.38;;;25.50;42.70;;;;;;5051798;28;20025;-72
2021/09/18 12:28:25;;;;;;;3.13;2.55;;;25.40;42.20;;;;;;5051864;28;20082;-71
2021/09/18 12:30:51;;;;;;;3.20;2.78;;;25.40;42.60;;;;;;5051758;28;20021;-71
2021/09/18 12:33:27;;;;;;;4.45;3.17;;;25.40;42.50;;;;;;5051663;28;20458;-72
2021/09/18 12:36:02;;;;;;;4.38;3.60;;;25.40;42.60;;;;;;5052621;28;20039;-71
2021/09/18 12:38:29;;;;;;;4.28;3.47;;;25.30;42.10;;;;;;5051669;28;20052;-72
2021/09/18 12:41:00;;;;;;;4.45;3.10;;;25.30;42.60;;;;;;5051761;28;20021;-72
2021/09/18 12:43:26;;;;;;;4.72;3.30;;;25.30;42.80;;;;;;5051798;28;20544;-71
2021/09/18 12:46:07;;;;;;;5.45;3.67;;;25.30;43.00;;;;;;5051435;28;20029;-72
2021/09/18 12:48:33;;;;;;;5.05;3.03;;;25.30;42.50;;;;;;5051820;28;20032;-72
2021/09/18 12:51:03;;;;;;;12.10;8.57;;;25.40;42.50;;;;;;5055175;28;20032;-72
2021/09/18 12:53:43;;;;;;;4.18;3.63;;;25.40;42.80;;;;;;5051754;28;20025;-71